sensor_id;sensor_type;location;lat;lon;timestamp;P1;durP1;ratioP1;P2;durP2;ratioP2
18042;SDS011;9146;48.074;11.968;2022-12-07T00:01:25;12.90;;;9.40;;
18042;SDS011;9146;48.074;11.968;2022-12-07T00:03:54;11.97;;;9.17;;
18042;SDS011;9146;48.074;11.968;2022-12-07T00:06:25;10.90;;;9.53;;
18042;SDS011;9146;48.074;11.968;2022-12-07T00:08:52;13.10;;;10.13;;
18042;SDS011;9146;48.074;11.968;2022-12-07T00:11:21;13.00;;;9.17;;
18042;SDS011;9146;48.074;11.968;2022-12-07T00:13:50;10.63;;;8.73;;
18042;SDS011;9146;48.074;11.968;2022-12-07T00:16:19;12.87;;;10.07;;
18042;SDS011;9146;48.074;11.968;2022-12-07T00:18:47;11.73;;;8.70;;
18042;SDS011;9146;48.074;11.968;2022-12-07T00:21:15;11.60;;;8.80;;
18042;SDS011;9146;48.074;11.968;2022-12-07T00:23:43;10.90;;;8.77;;
18042;SDS011;9146;48.074;11.968;2022-12-07T00:26:12;11.33;;;8.90;;
18042;SDS011;9146;48.074;11.968;2022-12-07T00:28:41;10.57;;;8.07;;
18042;SDS011;9146;48.074;11.968;2022-12-07T00:31:11;12.00;;;9.10;;
18042;SDS011;9146;48.074;11.968;2022-12-07T00:33:39;14.70;;;8.87;;
18042;SDS011;9146;48.074;11.968;2022-12-07T00:36:07;13.07;;;9.67;;
18042;SDS011;9146;48.074;11.968;2022-12-07T00:38:37;11.10;;;8.37;;
18042;SDS011;9146;48.074;11.968;2022-12-07T00:41:05;11.30;;;8.10;;
18042;SDS011;9146;48.074;11.968;2022-12-07T00:43:35;11.90;;;8.40;;
18042;SDS011;9146;48.074;11.968;2022-12-07T00:46:03;10.37;;;8.77;;
18042;SDS011;9146;48.074;11.968;2022-12-07T00:48:30;11.83;;;8.47;;
18042;SDS011;9146;48.074;11.968;2022-12-07T00:50:57;12.60;;;9.37;;
18042;SDS011;9146;48.074;11.968;2022-12-07T00:53:24;9.60;;;8.23;;
18042;SDS011;9146;48.074;11.968;2022-12-07T00:55:52;13.47;;;9.10;;
18042;SDS011;9146;48.074;11.968;2022-12-07T00:58:20;11.60;;;8.60;;
18042;SDS011;9146;48.074;11.968;2022-12-07T01:00:47;13.27;;;8.83;;
18042;SDS011;9146;48.074;11.968;2022-12-07T01:03:15;10.63;;;8.63;;
18042;SDS011;9146;48.074;11.968;2022-12-07T01:05:48;10.00;;;7.70;;
18042;SDS011;9146;48.074;11.968;2022-12-07T01:08:16;11.07;;;8.07;;
18042;SDS011;9146;48.074;11.968;2022-12-07T01:10:43;11.20;;;7.87;;
18042;SDS011;9146;48.074;11.968;2022-12-07T01:13:10;9.97;;;8.43;;
18042;SDS011;9146;48.074;11.968;2022-12-07T01:15:38;11.20;;;8.37;;
18042;SDS011;9146;48.074;11.968;2022-12-07T01:18:06;11.60;;;8.63;;
18042;SDS011;9146;48.074;11.968;2022-12-07T01:20:34;10.70;;;8.30;;
18042;SDS011;9146;48.074;11.968;2022-12-07T01:23:01;12.30;;;9.10;;
18042;SDS011;9146;48.074;11.968;2022-12-07T01:25:28;13.20;;;8.67;;
18042;SDS011;9146;48.074;11.968;2022-12-07T01:27:55;12.67;;;9.77;;
18042;SDS011;9146;48.074;11.968;2022-12-07T01:30:22;12.50;;;9.30;;
18042;SDS011;9146;48.074;11.968;2022-12-07T01:32:49;13.13;;;9.07;;
18042;SDS011;9146;48.074;11.968;2022-12-07T01:35:16;12.50;;;8.67;;
18042;SDS011;9146;48.074;11.968;2022-12-07T01:37:44;11.83;;;8.13;;
18042;SDS011;9146;48.074;11.968;2022-12-07T01:40:11;10.10;;;8.30;;
18042;SDS011;9146;48.074;11.968;2022-12-07T01:42:38;13.90;;;9.63;;
18042;SDS011;9146;48.074;11.968;2022-12-07T01:48:03;11.23;;;8.77;;
18042;SDS011;9146;48.074;11.968;2022-12-07T01:50:31;11.40;;;9.10;;
18042;SDS011;9146;48.074;11.968;2022-12-07T01:53:01;11.63;;;8.50;;
18042;SDS011;9146;48.074;11.968;2022-12-07T01:55:31;12.93;;;8.70;;
18042;SDS011;9146;48.074;11.968;2022-12-07T01:57:58;11.70;;;8.53;;
18042;SDS011;9146;48.074;11.968;2022-12-07T02:00:25;10.17;;;7.23;;
18042;SDS011;9146;48.074;11.968;2022-12-07T02:02:53;10.10;;;8.10;;
18042;SDS011;9146;48.074;11.968;2022-12-07T02:05:23;11.93;;;9.27;;
18042;SDS011;9146;48.074;11.968;2022-12-07T02:07:52;10.77;;;8.43;;
18042;SDS011;9146;48.074;11.968;2022-12-07T02:10:24;11.73;;;8.93;;
18042;SDS011;9146;48.074;11.968;2022-12-07T02:12:55;13.67;;;9.87;;
18042;SDS011;9146;48.074;11.968;2022-12-07T02:15:25;11.97;;;9.20;;
18042;SDS011;9146;48.074;11.968;2022-12-07T02:17:58;11.90;;;9.40;;
18042;SDS011;9146;48.074;11.968;2022-12-07T02:20:31;11.60;;;9.10;;
18042;SDS011;9146;48.074;11.968;2022-12-07T02:23:11;13.20;;;9.07;;
18042;SDS011;9146;48.074;11.968;2022-12-07T02:25:57;10.83;;;8.50;;
18042;SDS011;9146;48.074;11.968;2022-12-07T02:28:33;13.80;;;9.00;;
18042;SDS011;9146;48.074;11.968;2022-12-07T02:31:04;13.47;;;9.37;;
18042;SDS011;9146;48.074;11.968;2022-12-07T02:33:35;11.50;;;9.03;;
18042;SDS011;9146;48.074;11.968;2022-12-07T02:36:08;14.73;;;9.50;;
18042;SDS011;9146;48.074;11.968;2022-12-07T02:38:39;11.70;;;9.50;;
18042;SDS011;9146;48.074;11.968;2022-12-07T02:41:15;12.10;;;9.80;;
18042;SDS011;9146;48.074;11.968;2022-12-07T02:43:46;13.30;;;9.03;;
18042;SDS011;9146;48.074;11.968;2022-12-07T02:46:19;12.10;;;8.20;;
18042;SDS011;9146;48.074;11.968;2022-12-07T02:48:49;12.07;;;8.77;;
18042;SDS011;9146;48.074;11.968;2022-12-07T02:51:17;13.60;;;9.13;;
18042;SDS011;9146;48.074;11.968;2022-12-07T02:53:44;13.70;;;9.30;;
18042;SDS011;9146;48.074;11.968;2022-12-07T02:56:13;12.53;;;9.27;;
18042;SDS011;9146;48.074;11.968;2022-12-07T02:58:54;12.10;;;8.97;;
18042;SDS011;9146;48.074;11.968;2022-12-07T03:01:37;11.90;;;8.37;;
18042;SDS011;9146;48.074;11.968;2022-12-07T03:04:14;13.47;;;9.53;;
18042;SDS011;9146;48.074;11.968;2022-12-07T03:06:53;18.83;;;9.67;;
18042;SDS011;9146;48.074;11.968;2022-12-07T03:09:27;12.50;;;9.00;;
18042;SDS011;9146;48.074;11.968;2022-12-07T03:12:00;14.80;;;10.13;;
18042;SDS011;9146;48.074;11.968;2022-12-07T03:14:34;11.10;;;8.13;;
18042;SDS011;9146;48.074;11.968;2022-12-07T03:17:07;12.97;;;9.00;;
18042;SDS011;9146;48.074;11.968;2022-12-07T03:19:39;10.90;;;8.77;;
18042;SDS011;9146;48.074;11.968;2022-12-07T03:22:09;16.60;;;9.90;;
18042;SDS011;9146;48.074;11.968;2022-12-07T03:24:39;12.50;;;9.63;;
18042;SDS011;9146;48.074;11.968;2022-12-07T03:27:11;13.97;;;10.20;;
18042;SDS011;9146;48.074;11.968;2022-12-07T03:29:43;12.23;;;8.60;;
18042;SDS011;9146;48.074;11.968;2022-12-07T03:32:14;12.70;;;8.53;;
18042;SDS011;9146;48.074;11.968;2022-12-07T03:34:49;14.80;;;9.70;;
18042;SDS011;9146;48.074;11.968;2022-12-07T03:37:22;13.30;;;9.87;;
18042;SDS011;9146;48.074;11.968;2022-12-07T03:39:57;13.57;;;9.70;;
18042;SDS011;9146;48.074;11.968;2022-12-07T03:42:30;12.70;;;9.20;;
18042;SDS011;9146;48.074;11.968;2022-12-07T03:44:58;13.50;;;9.80;;
18042;SDS011;9146;48.074;11.968;2022-12-07T03:47:28;11.27;;;8.40;;
18042;SDS011;9146;48.074;11.968;2022-12-07T03:50:00;13.20;;;9.00;;
18042;SDS011;9146;48.074;11.968;2022-12-07T03:52:32;13.97;;;9.87;;
18042;SDS011;9146;48.074;11.968;2022-12-07T03:55:06;11.27;;;8.80;;
18042;SDS011;9146;48.074;11.968;2022-12-07T03:57:37;13.40;;;9.63;;
18042;SDS011;9146;48.074;11.968;2022-12-07T04:00:05;12.87;;;9.20;;
18042;SDS011;9146;48.074;11.968;2022-12-07T04:02:35;12.50;;;9.17;;
18042;SDS011;9146;48.074;11.968;2022-12-07T04:05:02;15.37;;;10.10;;
18042;SDS011;9146;48.074;11.968;2022-12-07T04:07:30;14.23;;;9.80;;
18042;SDS011;9146;48.074;11.968;2022-12-07T04:09:57;15.07;;;10.87;;
18042;SDS011;9146;48.074;11.968;2022-12-07T04:12:25;15.00;;;9.67;;
18042;SDS011;9146;48.074;11.968;2022-12-07T04:14:51;15.10;;;10.90;;
18042;SDS011;9146;48.074;11.968;2022-12-07T04:17:18;12.50;;;9.77;;
18042;SDS011;9146;48.074;11.968;2022-12-07T04:19:47;14.43;;;10.70;;
18042;SDS011;9146;48.074;11.968;2022-12-07T04:22:14;14.80;;;9.77;;
18042;SDS011;9146;48.074;11.968;2022-12-07T04:24:50;15.23;;;9.80;;
18042;SDS011;9146;48.074;11.968;2022-12-07T04:27:17;13.37;;;9.90;;
18042;SDS011;9146;48.074;11.968;2022-12-07T04:29:44;15.60;;;11.20;;
18042;SDS011;9146;48.074;11.968;2022-12-07T04:32:11;17.60;;;9.40;;
18042;SDS011;9146;48.074;11.968;2022-12-07T04:34:37;11.47;;;9.10;;
18042;SDS011;9146;48.074;11.968;2022-12-07T04:37:06;14.87;;;9.23;;
18042;SDS011;9146;48.074;11.968;2022-12-07T04:39:33;15.67;;;10.10;;
18042;SDS011;9146;48.074;11.968;2022-12-07T04:42:00;17.47;;;10.40;;
18042;SDS011;9146;48.074;11.968;2022-12-07T04:44:27;14.90;;;9.67;;
18042;SDS011;9146;48.074;11.968;2022-12-07T04:46:55;15.30;;;10.30;;
18042;SDS011;9146;48.074;11.968;2022-12-07T04:49:23;13.20;;;9.77;;
18042;SDS011;9146;48.074;11.968;2022-12-07T04:51:51;16.77;;;12.63;;
18042;SDS011;9146;48.074;11.968;2022-12-07T04:54:19;14.57;;;10.73;;
18042;SDS011;9146;48.074;11.968;2022-12-07T04:56:47;14.33;;;10.80;;
18042;SDS011;9146;48.074;11.968;2022-12-07T04:59:14;15.40;;;10.70;;
18042;SDS011;9146;48.074;11.968;2022-12-07T05:01:42;16.93;;;12.07;;
18042;SDS011;9146;48.074;11.968;2022-12-07T05:04:09;18.30;;;11.83;;
18042;SDS011;9146;48.074;11.968;2022-12-07T05:06:36;16.43;;;11.47;;
18042;SDS011;9146;48.074;11.968;2022-12-07T05:09:03;17.37;;;11.60;;
18042;SDS011;9146;48.074;11.968;2022-12-07T05:11:32;14.63;;;11.50;;
18042;SDS011;9146;48.074;11.968;2022-12-07T05:14:06;16.03;;;11.97;;
18042;SDS011;9146;48.074;11.968;2022-12-07T05:16:36;17.40;;;11.43;;
18042;SDS011;9146;48.074;11.968;2022-12-07T05:19:04;13.80;;;10.47;;
18042;SDS011;9146;48.074;11.968;2022-12-07T05:21:31;18.80;;;13.27;;
18042;SDS011;9146;48.074;11.968;2022-12-07T05:23:58;15.70;;;11.37;;
18042;SDS011;9146;48.074;11.968;2022-12-07T05:26:25;17.57;;;12.57;;
18042;SDS011;9146;48.074;11.968;2022-12-07T05:28:54;17.50;;;12.57;;
18042;SDS011;9146;48.074;11.968;2022-12-07T05:31:22;21.57;;;12.73;;
18042;SDS011;9146;48.074;11.968;2022-12-07T05:33:50;16.70;;;12.60;;
18042;SDS011;9146;48.074;11.968;2022-12-07T05:36:17;18.60;;;12.50;;
18042;SDS011;9146;48.074;11.968;2022-12-07T05:38:44;18.50;;;12.77;;
18042;SDS011;9146;48.074;11.968;2022-12-07T05:41:12;18.30;;;13.27;;
18042;SDS011;9146;48.074;11.968;2022-12-07T05:43:56;18.77;;;12.20;;
18042;SDS011;9146;48.074;11.968;2022-12-07T05:46:23;19.97;;;12.30;;
18042;SDS011;9146;48.074;11.968;2022-12-07T05:48:50;17.30;;;12.83;;
18042;SDS011;9146;48.074;11.968;2022-12-07T05:51:17;17.87;;;13.13;;
18042;SDS011;9146;48.074;11.968;2022-12-07T05:53:44;21.07;;;13.50;;
18042;SDS011;9146;48.074;11.968;2022-12-07T05:56:11;19.07;;;13.27;;
18042;SDS011;9146;48.074;11.968;2022-12-07T05:58:38;20.40;;;12.47;;
18042;SDS011;9146;48.074;11.968;2022-12-07T06:01:24;19.10;;;13.23;;
18042;SDS011;9146;48.074;11.968;2022-12-07T06:03:50;19.10;;;13.60;;
18042;SDS011;9146;48.074;11.968;2022-12-07T06:06:17;22.87;;;13.53;;
18042;SDS011;9146;48.074;11.968;2022-12-07T06:08:44;18.33;;;12.63;;
18042;SDS011;9146;48.074;11.968;2022-12-07T06:11:11;23.13;;;14.10;;
18042;SDS011;9146;48.074;11.968;2022-12-07T06:13:56;21.47;;;12.50;;
18042;SDS011;9146;48.074;11.968;2022-12-07T06:16:24;16.07;;;11.33;;
18042;SDS011;9146;48.074;11.968;2022-12-07T06:18:51;19.97;;;13.70;;
18042;SDS011;9146;48.074;11.968;2022-12-07T06:21:18;20.17;;;12.80;;
18042;SDS011;9146;48.074;11.968;2022-12-07T06:23:45;23.50;;;15.97;;
18042;SDS011;9146;48.074;11.968;2022-12-07T06:26:13;21.90;;;13.27;;
18042;SDS011;9146;48.074;11.968;2022-12-07T06:28:41;24.77;;;14.63;;
18042;SDS011;9146;48.074;11.968;2022-12-07T06:31:08;25.03;;;14.67;;
18042;SDS011;9146;48.074;11.968;2022-12-07T06:33:37;22.40;;;13.13;;
18042;SDS011;9146;48.074;11.968;2022-12-07T06:36:05;31.67;;;15.47;;
18042;SDS011;9146;48.074;11.968;2022-12-07T06:38:32;31.43;;;16.67;;
18042;SDS011;9146;48.074;11.968;2022-12-07T06:40:59;28.00;;;16.00;;
18042;SDS011;9146;48.074;11.968;2022-12-07T06:43:26;29.10;;;18.37;;
18042;SDS011;9146;48.074;11.968;2022-12-07T06:45:54;23.13;;;14.63;;
18042;SDS011;9146;48.074;11.968;2022-12-07T06:48:21;31.83;;;16.90;;
18042;SDS011;9146;48.074;11.968;2022-12-07T06:50:50;29.17;;;16.70;;
18042;SDS011;9146;48.074;11.968;2022-12-07T06:53:16;31.07;;;16.00;;
18042;SDS011;9146;48.074;11.968;2022-12-07T06:55:43;38.80;;;18.87;;
18042;SDS011;9146;48.074;11.968;2022-12-07T06:58:10;28.07;;;16.20;;
18042;SDS011;9146;48.074;11.968;2022-12-07T07:00:37;32.70;;;16.27;;
18042;SDS011;9146;48.074;11.968;2022-12-07T07:03:04;33.10;;;17.13;;
18042;SDS011;9146;48.074;11.968;2022-12-07T07:05:30;36.67;;;15.80;;
18042;SDS011;9146;48.074;11.968;2022-12-07T07:07:59;32.83;;;15.97;;
18042;SDS011;9146;48.074;11.968;2022-12-07T07:10:26;25.57;;;14.03;;
18042;SDS011;9146;48.074;11.968;2022-12-07T07:12:53;26.30;;;14.47;;
18042;SDS011;9146;48.074;11.968;2022-12-07T07:15:20;25.07;;;13.30;;
18042;SDS011;9146;48.074;11.968;2022-12-07T07:17:47;29.80;;;16.47;;
18042;SDS011;9146;48.074;11.968;2022-12-07T07:20:14;29.50;;;16.23;;
18042;SDS011;9146;48.074;11.968;2022-12-07T07:22:41;30.90;;;17.77;;
18042;SDS011;9146;48.074;11.968;2022-12-07T07:25:09;28.23;;;16.20;;
18042;SDS011;9146;48.074;11.968;2022-12-07T07:27:36;28.87;;;17.17;;
18042;SDS011;9146;48.074;11.968;2022-12-07T07:30:04;33.40;;;17.57;;
18042;SDS011;9146;48.074;11.968;2022-12-07T07:32:31;36.60;;;18.70;;
18042;SDS011;9146;48.074;11.968;2022-12-07T07:34:58;28.37;;;15.73;;
18042;SDS011;9146;48.074;11.968;2022-12-07T07:37:25;29.73;;;16.00;;
18042;SDS011;9146;48.074;11.968;2022-12-07T07:39:52;28.97;;;17.80;;
18042;SDS011;9146;48.074;11.968;2022-12-07T07:42:21;28.27;;;16.07;;
18042;SDS011;9146;48.074;11.968;2022-12-07T07:44:47;35.37;;;18.23;;
18042;SDS011;9146;48.074;11.968;2022-12-07T07:47:14;34.10;;;16.60;;
18042;SDS011;9146;48.074;11.968;2022-12-07T07:49:41;27.17;;;16.73;;
18042;SDS011;9146;48.074;11.968;2022-12-07T07:52:08;28.70;;;17.23;;
18042;SDS011;9146;48.074;11.968;2022-12-07T07:54:35;30.77;;;18.17;;
18042;SDS011;9146;48.074;11.968;2022-12-07T07:57:02;33.07;;;18.00;;
18042;SDS011;9146;48.074;11.968;2022-12-07T07:59:30;31.33;;;17.93;;
18042;SDS011;9146;48.074;11.968;2022-12-07T08:01:57;33.10;;;17.30;;
18042;SDS011;9146;48.074;11.968;2022-12-07T08:04:24;28.73;;;16.60;;
18042;SDS011;9146;48.074;11.968;2022-12-07T08:06:51;31.13;;;17.67;;
18042;SDS011;9146;48.074;11.968;2022-12-07T08:09:18;25.17;;;15.63;;
18042;SDS011;9146;48.074;11.968;2022-12-07T08:11:44;25.77;;;16.00;;
18042;SDS011;9146;48.074;11.968;2022-12-07T08:14:11;25.33;;;15.53;;
18042;SDS011;9146;48.074;11.968;2022-12-07T08:16:40;24.43;;;15.43;;
18042;SDS011;9146;48.074;11.968;2022-12-07T08:19:07;29.50;;;16.70;;
18042;SDS011;9146;48.074;11.968;2022-12-07T08:21:33;25.53;;;15.90;;
18042;SDS011;9146;48.074;11.968;2022-12-07T08:24:00;24.77;;;17.37;;
18042;SDS011;9146;48.074;11.968;2022-12-07T08:26:27;32.13;;;17.80;;
18042;SDS011;9146;48.074;11.968;2022-12-07T08:28:54;28.80;;;16.87;;
18042;SDS011;9146;48.074;11.968;2022-12-07T08:31:21;32.10;;;17.97;;
18042;SDS011;9146;48.074;11.968;2022-12-07T08:33:49;30.13;;;17.10;;
18042;SDS011;9146;48.074;11.968;2022-12-07T08:36:16;29.33;;;16.87;;
18042;SDS011;9146;48.074;11.968;2022-12-07T08:38:43;25.57;;;16.93;;
18042;SDS011;9146;48.074;11.968;2022-12-07T08:41:12;25.70;;;15.23;;
18042;SDS011;9146;48.074;11.968;2022-12-07T08:43:38;23.27;;;14.23;;
18042;SDS011;9146;48.074;11.968;2022-12-07T08:46:06;21.60;;;14.97;;
18042;SDS011;9146;48.074;11.968;2022-12-07T08:48:36;25.73;;;14.27;;
18042;SDS011;9146;48.074;11.968;2022-12-07T08:51:07;21.80;;;14.17;;
18042;SDS011;9146;48.074;11.968;2022-12-07T08:53:34;25.00;;;15.27;;
18042;SDS011;9146;48.074;11.968;2022-12-07T08:56:03;28.80;;;17.03;;
18042;SDS011;9146;48.074;11.968;2022-12-07T08:58:31;22.00;;;14.13;;
18042;SDS011;9146;48.074;11.968;2022-12-07T09:00:58;18.87;;;12.87;;
18042;SDS011;9146;48.074;11.968;2022-12-07T09:03:25;23.07;;;14.10;;
18042;SDS011;9146;48.074;11.968;2022-12-07T09:05:52;19.60;;;13.93;;
18042;SDS011;9146;48.074;11.968;2022-12-07T09:08:21;21.80;;;13.73;;
18042;SDS011;9146;48.074;11.968;2022-12-07T09:10:52;19.47;;;13.30;;
18042;SDS011;9146;48.074;11.968;2022-12-07T09:13:19;17.00;;;12.93;;
18042;SDS011;9146;48.074;11.968;2022-12-07T09:15:45;21.70;;;12.97;;
18042;SDS011;9146;48.074;11.968;2022-12-07T09:18:12;18.17;;;12.73;;
18042;SDS011;9146;48.074;11.968;2022-12-07T09:20:39;15.87;;;12.03;;
18042;SDS011;9146;48.074;11.968;2022-12-07T09:23:06;19.87;;;12.90;;
18042;SDS011;9146;48.074;11.968;2022-12-07T09:25:34;19.07;;;13.20;;
18042;SDS011;9146;48.074;11.968;2022-12-07T09:28:01;17.63;;;12.57;;
18042;SDS011;9146;48.074;11.968;2022-12-07T09:30:28;20.80;;;13.03;;
18042;SDS011;9146;48.074;11.968;2022-12-07T09:32:56;17.73;;;12.10;;
18042;SDS011;9146;48.074;11.968;2022-12-07T09:35:23;15.13;;;12.37;;
18042;SDS011;9146;48.074;11.968;2022-12-07T09:37:50;16.53;;;11.80;;
18042;SDS011;9146;48.074;11.968;2022-12-07T09:40:18;15.13;;;11.60;;
18042;SDS011;9146;48.074;11.968;2022-12-07T09:42:51;16.10;;;11.40;;
18042;SDS011;9146;48.074;11.968;2022-12-07T09:45:32;17.23;;;12.03;;
18042;SDS011;9146;48.074;11.968;2022-12-07T09:48:08;13.50;;;10.30;;
18042;SDS011;9146;48.074;11.968;2022-12-07T09:50:44;13.10;;;9.73;;
18042;SDS011;9146;48.074;11.968;2022-12-07T09:53:13;14.90;;;10.73;;
18042;SDS011;9146;48.074;11.968;2022-12-07T09:55:43;15.00;;;10.27;;
18042;SDS011;9146;48.074;11.968;2022-12-07T09:58:13;12.43;;;9.43;;
18042;SDS011;9146;48.074;11.968;2022-12-07T10:00:46;11.20;;;9.03;;
18042;SDS011;9146;48.074;11.968;2022-12-07T10:03:13;11.70;;;9.57;;
18042;SDS011;9146;48.074;11.968;2022-12-07T10:05:41;11.93;;;8.80;;
18042;SDS011;9146;48.074;11.968;2022-12-07T10:08:10;11.70;;;8.73;;
18042;SDS011;9146;48.074;11.968;2022-12-07T10:10:39;11.37;;;8.10;;
18042;SDS011;9146;48.074;11.968;2022-12-07T10:13:06;11.30;;;8.53;;
18042;SDS011;9146;48.074;11.968;2022-12-07T10:15:43;10.27;;;8.30;;
18042;SDS011;9146;48.074;11.968;2022-12-07T10:18:28;10.20;;;8.47;;
18042;SDS011;9146;48.074;11.968;2022-12-07T10:21:00;10.23;;;8.30;;
18042;SDS011;9146;48.074;11.968;2022-12-07T10:23:39;10.30;;;8.37;;
18042;SDS011;9146;48.074;11.968;2022-12-07T10:28:53;10.40;;;7.73;;
18042;SDS011;9146;48.074;11.968;2022-12-07T10:31:23;9.50;;;7.90;;
18042;SDS011;9146;48.074;11.968;2022-12-07T10:33:51;9.03;;;7.50;;
18042;SDS011;9146;48.074;11.968;2022-12-07T10:36:20;9.70;;;7.70;;
18042;SDS011;9146;48.074;11.968;2022-12-07T10:38:50;11.10;;;8.50;;
18042;SDS011;9146;48.074;11.968;2022-12-07T10:41:18;10.10;;;8.40;;
18042;SDS011;9146;48.074;11.968;2022-12-07T10:43:46;9.77;;;7.90;;
18042;SDS011;9146;48.074;11.968;2022-12-07T10:46:32;12.13;;;10.00;;
18042;SDS011;9146;48.074;11.968;2022-12-07T10:49:30;9.93;;;8.50;;
18042;SDS011;9146;48.074;11.968;2022-12-07T10:52:18;10.40;;;9.10;;
18042;SDS011;9146;48.074;11.968;2022-12-07T10:55:01;9.67;;;7.80;;
18042;SDS011;9146;48.074;11.968;2022-12-07T10:57:42;14.07;;;7.77;;
18042;SDS011;9146;48.074;11.968;2022-12-07T11:00:19;10.37;;;8.33;;
18042;SDS011;9146;48.074;11.968;2022-12-07T11:03:09;9.30;;;7.30;;
18042;SDS011;9146;48.074;11.968;2022-12-07T11:05:58;10.40;;;8.03;;
18042;SDS011;9146;48.074;11.968;2022-12-07T11:08:38;8.43;;;7.43;;
18042;SDS011;9146;48.074;11.968;2022-12-07T11:11:13;9.67;;;7.00;;
18042;SDS011;9146;48.074;11.968;2022-12-07T11:13:44;10.30;;;8.07;;
18042;SDS011;9146;48.074;11.968;2022-12-07T11:16:30;9.17;;;7.83;;
18042;SDS011;9146;48.074;11.968;2022-12-07T11:19:27;8.20;;;6.90;;
18042;SDS011;9146;48.074;11.968;2022-12-07T11:22:16;9.80;;;7.63;;
18042;SDS011;9146;48.074;11.968;2022-12-07T11:24:49;10.90;;;8.20;;
18042;SDS011;9146;48.074;11.968;2022-12-07T11:27:23;11.17;;;8.23;;
18042;SDS011;9146;48.074;11.968;2022-12-07T11:30:08;10.30;;;8.07;;
18042;SDS011;9146;48.074;11.968;2022-12-07T11:35:45;8.70;;;7.53;;
18042;SDS011;9146;48.074;11.968;2022-12-07T11:38:24;10.43;;;8.00;;
18042;SDS011;9146;48.074;11.968;2022-12-07T11:40:58;10.70;;;7.70;;
18042;SDS011;9146;48.074;11.968;2022-12-07T11:43:37;9.60;;;7.30;;
18042;SDS011;9146;48.074;11.968;2022-12-07T11:46:29;8.40;;;7.00;;
18042;SDS011;9146;48.074;11.968;2022-12-07T11:49:08;8.37;;;6.00;;
18042;SDS011;9146;48.074;11.968;2022-12-07T11:51:41;7.50;;;6.40;;
18042;SDS011;9146;48.074;11.968;2022-12-07T11:54:12;7.27;;;6.43;;
18042;SDS011;9146;48.074;11.968;2022-12-07T11:56:43;7.50;;;6.70;;
18042;SDS011;9146;48.074;11.968;2022-12-07T11:59:12;8.10;;;6.50;;
18042;SDS011;9146;48.074;11.968;2022-12-07T12:01:48;8.17;;;7.23;;
18042;SDS011;9146;48.074;11.968;2022-12-07T12:04:27;7.47;;;5.90;;
18042;SDS011;9146;48.074;11.968;2022-12-07T12:07:01;8.20;;;5.73;;
18042;SDS011;9146;48.074;11.968;2022-12-07T12:09:33;8.53;;;6.80;;
18042;SDS011;9146;48.074;11.968;2022-12-07T12:12:13;6.63;;;5.87;;
18042;SDS011;9146;48.074;11.968;2022-12-07T12:14:53;8.50;;;6.60;;
18042;SDS011;9146;48.074;11.968;2022-12-07T12:17:38;6.37;;;5.77;;
18042;SDS011;9146;48.074;11.968;2022-12-07T12:20:26;7.40;;;6.00;;
18042;SDS011;9146;48.074;11.968;2022-12-07T12:22:59;9.30;;;6.73;;
18042;SDS011;9146;48.074;11.968;2022-12-07T12:25:35;6.97;;;6.03;;
18042;SDS011;9146;48.074;11.968;2022-12-07T12:28:17;8.50;;;7.10;;
18042;SDS011;9146;48.074;11.968;2022-12-07T12:33:31;8.20;;;7.00;;
18042;SDS011;9146;48.074;11.968;2022-12-07T12:38:51;7.17;;;6.03;;
18042;SDS011;9146;48.074;11.968;2022-12-07T12:41:52;7.73;;;6.93;;
18042;SDS011;9146;48.074;11.968;2022-12-07T12:44:42;7.00;;;6.07;;
18042;SDS011;9146;48.074;11.968;2022-12-07T12:47:43;7.77;;;6.93;;
18042;SDS011;9146;48.074;11.968;2022-12-07T12:50:21;8.57;;;7.17;;
18042;SDS011;9146;48.074;11.968;2022-12-07T12:52:54;8.33;;;6.40;;
18042;SDS011;9146;48.074;11.968;2022-12-07T12:55:30;7.90;;;6.47;;
18042;SDS011;9146;48.074;11.968;2022-12-07T12:58:44;7.60;;;6.53;;
18042;SDS011;9146;48.074;11.968;2022-12-07T13:04:18;8.47;;;7.20;;
18042;SDS011;9146;48.074;11.968;2022-12-07T13:06:50;8.60;;;7.00;;
18042;SDS011;9146;48.074;11.968;2022-12-07T13:09:19;10.10;;;8.33;;
18042;SDS011;9146;48.074;11.968;2022-12-07T13:11:48;9.63;;;7.10;;
18042;SDS011;9146;48.074;11.968;2022-12-07T13:17:09;7.57;;;6.40;;
18042;SDS011;9146;48.074;11.968;2022-12-07T13:25:21;7.93;;;6.53;;
18042;SDS011;9146;48.074;11.968;2022-12-07T13:28:07;7.97;;;6.40;;
18042;SDS011;9146;48.074;11.968;2022-12-07T13:30:42;7.73;;;6.20;;
18042;SDS011;9146;48.074;11.968;2022-12-07T13:33:29;7.50;;;6.70;;
18042;SDS011;9146;48.074;11.968;2022-12-07T13:35:58;10.23;;;6.50;;
18042;SDS011;9146;48.074;11.968;2022-12-07T13:38:27;8.90;;;7.03;;
18042;SDS011;9146;48.074;11.968;2022-12-07T13:41:00;8.57;;;6.97;;
18042;SDS011;9146;48.074;11.968;2022-12-07T13:43:42;7.77;;;6.93;;
18042;SDS011;9146;48.074;11.968;2022-12-07T13:46:14;9.00;;;6.67;;
18042;SDS011;9146;48.074;11.968;2022-12-07T13:48:44;7.93;;;6.90;;
18042;SDS011;9146;48.074;11.968;2022-12-07T13:51:21;7.53;;;6.57;;
18042;SDS011;9146;48.074;11.968;2022-12-07T13:53:50;8.37;;;7.07;;
18042;SDS011;9146;48.074;11.968;2022-12-07T13:56:21;8.97;;;7.30;;
18042;SDS011;9146;48.074;11.968;2022-12-07T13:58:50;9.60;;;8.23;;
18042;SDS011;9146;48.074;11.968;2022-12-07T14:01:17;9.67;;;7.37;;
18042;SDS011;9146;48.074;11.968;2022-12-07T14:03:44;8.67;;;7.40;;
18042;SDS011;9146;48.074;11.968;2022-12-07T14:06:20;8.17;;;6.97;;
18042;SDS011;9146;48.074;11.968;2022-12-07T14:09:06;9.13;;;7.70;;
18042;SDS011;9146;48.074;11.968;2022-12-07T14:11:35;9.80;;;7.77;;
18042;SDS011;9146;48.074;11.968;2022-12-07T14:14:02;10.73;;;7.83;;
18042;SDS011;9146;48.074;11.968;2022-12-07T14:16:30;9.60;;;7.93;;
18042;SDS011;9146;48.074;11.968;2022-12-07T14:19:00;8.30;;;6.63;;
18042;SDS011;9146;48.074;11.968;2022-12-07T14:21:31;8.63;;;6.77;;
18042;SDS011;9146;48.074;11.968;2022-12-07T14:26:45;8.97;;;7.40;;
18042;SDS011;9146;48.074;11.968;2022-12-07T14:29:21;10.80;;;7.57;;
18042;SDS011;9146;48.074;11.968;2022-12-07T14:31:56;10.20;;;7.33;;
18042;SDS011;9146;48.074;11.968;2022-12-07T14:34:24;8.50;;;7.30;;
18042;SDS011;9146;48.074;11.968;2022-12-07T14:36:53;8.03;;;6.90;;
18042;SDS011;9146;48.074;11.968;2022-12-07T14:39:20;10.63;;;7.60;;
18042;SDS011;9146;48.074;11.968;2022-12-07T14:41:47;10.30;;;7.37;;
18042;SDS011;9146;48.074;11.968;2022-12-07T14:44:17;10.17;;;8.20;;
18042;SDS011;9146;48.074;11.968;2022-12-07T14:46:44;13.13;;;8.93;;
18042;SDS011;9146;48.074;11.968;2022-12-07T14:49:11;8.83;;;7.23;;
18042;SDS011;9146;48.074;11.968;2022-12-07T14:51:38;10.80;;;9.00;;
18042;SDS011;9146;48.074;11.968;2022-12-07T14:54:11;9.00;;;7.63;;
18042;SDS011;9146;48.074;11.968;2022-12-07T14:56:41;9.17;;;7.83;;
18042;SDS011;9146;48.074;11.968;2022-12-07T14:59:09;9.03;;;7.03;;
18042;SDS011;9146;48.074;11.968;2022-12-07T15:01:36;12.13;;;8.00;;
18042;SDS011;9146;48.074;11.968;2022-12-07T15:04:03;10.63;;;8.60;;
18042;SDS011;9146;48.074;11.968;2022-12-07T15:06:30;10.77;;;8.53;;
18042;SDS011;9146;48.074;11.968;2022-12-07T15:08:57;11.30;;;8.20;;
18042;SDS011;9146;48.074;11.968;2022-12-07T15:11:25;9.87;;;8.10;;
18042;SDS011;9146;48.074;11.968;2022-12-07T15:13:53;9.13;;;7.60;;
18042;SDS011;9146;48.074;11.968;2022-12-07T15:16:36;10.50;;;7.47;;
18042;SDS011;9146;48.074;11.968;2022-12-07T15:19:05;9.23;;;7.33;;
18042;SDS011;9146;48.074;11.968;2022-12-07T15:21:32;9.87;;;7.60;;
18042;SDS011;9146;48.074;11.968;2022-12-07T15:23:58;9.87;;;7.77;;